sensor_id;sensor_type;location;lat;lon;timestamp;pressure;altitude;pressure_sealevel;temperature;humidity
27144;BME280;14672;50.250;8.312;2022-10-28T00:01:14;99413.97;;;19.75;66.86
27144;BME280;14672;50.250;8.312;2022-10-28T00:03:49;99415.34;;;19.80;66.97
27144;BME280;14672;50.250;8.312;2022-10-28T00:06:23;99407.25;;;19.84;66.74
27144;BME280;14672;50.250;8.312;2022-10-28T00:08:51;99406.44;;;19.78;66.73
27144;BME280;14672;50.250;8.312;2022-10-28T00:11:22;99408.06;;;19.84;66.81
27144;BME280;14672;50.250;8.312;2022-10-28T00:13:49;99409.88;;;19.82;66.92
27144;BME280;14672;50.250;8.312;2022-10-28T00:16:24;99414.63;;;19.85;66.51
27144;BME280;14672;50.250;8.312;2022-10-28T00:18:51;99424.56;;;19.84;66.92
27144;BME280;14672;50.250;8.312;2022-10-28T00:21:22;99429.31;;;19.87;66.41
27144;BME280;14672;50.250;8.312;2022-10-28T00:23:48;99435.03;;;19.81;66.83
27144;BME280;14672;50.250;8.312;2022-10-28T00:26:18;99435.59;;;19.85;66.36
27144;BME280;14672;50.250;8.312;2022-10-28T00:28:48;99421.19;;;19.85;66.26
27144;BME280;14672;50.250;8.312;2022-10-28T00:31:17;99420.16;;;19.88;66.09
27144;BME280;14672;50.250;8.312;2022-10-28T00:33:44;99425.13;;;19.88;66.09
27144;BME280;14672;50.250;8.312;2022-10-28T00:38:38;99414.88;;;19.87;65.96
27144;BME280;14672;50.250;8.312;2022-10-28T00:41:04;99415.63;;;19.82;66.65
27144;BME280;14672;50.250;8.312;2022-10-28T00:46:38;99413.00;;;19.78;66.32
27144;BME280;14672;50.250;8.312;2022-10-28T00:49:15;99422.75;;;19.60;67.19
27144;BME280;14672;50.250;8.312;2022-10-28T00:51:44;99419.94;;;19.66;66.98
27144;BME280;14672;50.250;8.312;2022-10-28T00:54:12;99416.53;;;19.67;66.62
27144;BME280;14672;50.250;8.312;2022-10-28T00:56:44;99421.72;;;19.63;67.20
27144;BME280;14672;50.250;8.312;2022-10-28T00:59:22;99412.34;;;19.68;67.12
27144;BME280;14672;50.250;8.312;2022-10-28T01:01:49;99408.75;;;19.74;66.76
27144;BME280;14672;50.250;8.312;2022-10-28T01:04:15;99402.19;;;19.73;66.90
27144;BME280;14672;50.250;8.312;2022-10-28T01:06:41;99400.31;;;19.70;66.94
27144;BME280;14672;50.250;8.312;2022-10-28T01:09:07;99397.94;;;19.68;66.92
27144;BME280;14672;50.250;8.312;2022-10-28T01:15:34;99399.69;;;19.60;67.43
27144;BME280;14672;50.250;8.312;2022-10-28T01:18:43;99397.88;;;19.63;67.42
27144;BME280;14672;50.250;8.312;2022-10-28T01:30:27;99389.59;;;19.71;67.37
27144;BME280;14672;50.250;8.312;2022-10-28T01:33:04;99391.28;;;19.57;67.90
27144;BME280;14672;50.250;8.312;2022-10-28T01:35:47;99381.94;;;19.67;67.33
27144;BME280;14672;50.250;8.312;2022-10-28T01:41:12;99385.91;;;19.70;67.60
27144;BME280;14672;50.250;8.312;2022-10-28T01:44:00;99383.28;;;19.72;67.22
27144;BME280;14672;50.250;8.312;2022-10-28T01:49:18;99374.97;;;19.80;67.10
27144;BME280;14672;50.250;8.312;2022-10-28T01:51:53;99368.06;;;19.66;67.61
27144;BME280;14672;50.250;8.312;2022-10-28T01:54:24;99364.06;;;19.63;67.80
27144;BME280;14672;50.250;8.312;2022-10-28T01:56:52;99364.03;;;19.58;68.23
27144;BME280;14672;50.250;8.312;2022-10-28T01:59:22;99354.13;;;19.64;67.86
27144;BME280;14672;50.250;8.312;2022-10-28T02:01:49;99342.19;;;19.77;67.26
27144;BME280;14672;50.250;8.312;2022-10-28T02:04:16;99337.50;;;19.80;67.26
27144;BME280;14672;50.250;8.312;2022-10-28T02:06:45;99337.03;;;19.87;67.28
27144;BME280;14672;50.250;8.312;2022-10-28T02:12:24;99328.06;;;19.79;67.02
27144;BME280;14672;50.250;8.312;2022-10-28T02:18:11;99323.28;;;19.71;67.75
27144;BME280;14672;50.250;8.312;2022-10-28T02:26:14;99336.13;;;19.75;67.71
27144;BME280;14672;50.250;8.312;2022-10-28T02:29:13;99346.22;;;19.91;67.13
27144;BME280;14672;50.250;8.312;2022-10-28T02:31:49;99343.66;;;19.93;67.12
27144;BME280;14672;50.250;8.312;2022-10-28T02:34:26;99336.84;;;19.96;67.00
27144;BME280;14672;50.250;8.312;2022-10-28T02:36:55;99338.91;;;19.90;67.33
27144;BME280;14672;50.250;8.312;2022-10-28T02:39:28;99343.91;;;19.95;67.05
27144;BME280;14672;50.250;8.312;2022-10-28T02:42:06;99327.69;;;19.97;66.98
27144;BME280;14672;50.250;8.312;2022-10-28T02:44:43;99337.94;;;19.98;67.03
27144;BME280;14672;50.250;8.312;2022-10-28T02:47:14;99340.19;;;19.89;67.62
27144;BME280;14672;50.250;8.312;2022-10-28T02:49:50;99330.81;;;19.94;67.62
27144;BME280;14672;50.250;8.312;2022-10-28T02:52:19;99338.91;;;19.90;68.04
27144;BME280;14672;50.250;8.312;2022-10-28T02:54:55;99332.09;;;19.93;68.00
27144;BME280;14672;50.250;8.312;2022-10-28T02:57:28;99325.50;;;19.87;68.20
27144;BME280;14672;50.250;8.312;2022-10-28T02:59:59;99335.00;;;19.93;68.36
27144;BME280;14672;50.250;8.312;2022-10-28T03:02:27;99330.69;;;19.83;68.89
27144;BME280;14672;50.250;8.312;2022-10-28T03:04:53;99327.94;;;19.94;68.40
27144;BME280;14672;50.250;8.312;2022-10-28T03:07:19;99316.16;;;19.97;68.24
27144;BME280;14672;50.250;8.312;2022-10-28T03:09:45;99320.63;;;19.98;68.43
27144;BME280;14672;50.250;8.312;2022-10-28T03:12:11;99326.34;;;19.93;68.71
27144;BME280;14672;50.250;8.312;2022-10-28T03:14:37;99315.06;;;19.95;68.79
27144;BME280;14672;50.250;8.312;2022-10-28T03:17:03;99330.25;;;19.90;69.06
27144;BME280;14672;50.250;8.312;2022-10-28T03:19:28;99328.16;;;19.90;69.28
27144;BME280;14672;50.250;8.312;2022-10-28T03:21:54;99321.38;;;19.93;69.11
27144;BME280;14672;50.250;8.312;2022-10-28T03:24:20;99314.00;;;19.92;69.19
27144;BME280;14672;50.250;8.312;2022-10-28T03:26:46;99312.66;;;19.88;69.35
27144;BME280;14672;50.250;8.312;2022-10-28T03:29:11;99313.69;;;19.85;69.64
27144;BME280;14672;50.250;8.312;2022-10-28T03:31:37;99305.03;;;19.85;69.45
27144;BME280;14672;50.250;8.312;2022-10-28T03:34:03;99308.91;;;19.76;69.80
27144;BME280;14672;50.250;8.312;2022-10-28T03:36:29;99321.78;;;19.81;69.61
27144;BME280;14672;50.250;8.312;2022-10-28T03:38:54;99313.88;;;19.76;70.12
27144;BME280;14672;50.250;8.312;2022-10-28T03:41:20;99310.66;;;19.68;70.13
27144;BME280;14672;50.250;8.312;2022-10-28T03:43:46;99313.13;;;19.81;69.96
27144;BME280;14672;50.250;8.312;2022-10-28T03:46:11;99301.13;;;19.56;70.64
27144;BME280;14672;50.250;8.312;2022-10-28T03:48:37;99296.22;;;19.62;70.95
27144;BME280;14672;50.250;8.312;2022-10-28T03:51:03;99303.63;;;19.75;70.17
27144;BME280;14672;50.250;8.312;2022-10-28T03:53:29;99305.97;;;19.71;70.60
27144;BME280;14672;50.250;8.312;2022-10-28T03:55:57;99292.06;;;19.69;70.48
27144;BME280;14672;50.250;8.312;2022-10-28T03:58:24;99305.19;;;19.70;70.12
27144;BME280;14672;50.250;8.312;2022-10-28T04:00:51;99293.75;;;19.81;69.85
27144;BME280;14672;50.250;8.312;2022-10-28T04:03:20;99309.94;;;19.73;70.19
27144;BME280;14672;50.250;8.312;2022-10-28T04:05:46;99318.19;;;19.60;70.46
27144;BME280;14672;50.250;8.312;2022-10-28T04:08:16;99325.97;;;19.80;69.93
27144;BME280;14672;50.250;8.312;2022-10-28T04:10:43;99325.22;;;19.85;69.69
27144;BME280;14672;50.250;8.312;2022-10-28T04:13:09;99333.09;;;19.84;69.63
27144;BME280;14672;50.250;8.312;2022-10-28T04:15:35;99324.72;;;19.86;69.18
27144;BME280;14672;50.250;8.312;2022-10-28T04:18:02;99328.66;;;19.89;69.25
27144;BME280;14672;50.250;8.312;2022-10-28T04:20:28;99325.50;;;19.87;69.13
27144;BME280;14672;50.250;8.312;2022-10-28T04:22:54;99325.16;;;19.79;69.13
27144;BME280;14672;50.250;8.312;2022-10-28T04:25:25;99327.22;;;19.73;69.54
27144;BME280;14672;50.250;8.312;2022-10-28T04:27:52;99327.06;;;19.82;68.59
27144;BME280;14672;50.250;8.312;2022-10-28T04:30:18;99329.13;;;19.82;68.82
27144;BME280;14672;50.250;8.312;2022-10-28T04:32:44;99320.75;;;19.84;68.47
27144;BME280;14672;50.250;8.312;2022-10-28T04:35:11;99332.59;;;19.91;67.99
27144;BME280;14672;50.250;8.312;2022-10-28T04:37:38;99316.09;;;19.92;68.23
27144;BME280;14672;50.250;8.312;2022-10-28T04:40:05;99322.91;;;19.89;67.90
27144;BME280;14672;50.250;8.312;2022-10-28T04:42:31;99320.84;;;19.95;67.70
27144;BME280;14672;50.250;8.312;2022-10-28T04:44:57;99305.31;;;19.87;68.07
27144;BME280;14672;50.250;8.312;2022-10-28T04:47:23;99307.75;;;19.94;67.76
27144;BME280;14672;50.250;8.312;2022-10-28T04:49:49;99312.41;;;19.86;68.05
27144;BME280;14672;50.250;8.312;2022-10-28T04:52:15;99301.66;;;19.86;67.90
27144;BME280;14672;50.250;8.312;2022-10-28T04:54:40;99317.59;;;19.82;67.98
27144;BME280;14672;50.250;8.312;2022-10-28T04:57:06;99300.84;;;19.86;67.86
27144;BME280;14672;50.250;8.312;2022-10-28T04:59:32;99303.84;;;19.65;68.78
27144;BME280;14672;50.250;8.312;2022-10-28T05:01:58;99292.16;;;19.80;67.89
27144;BME280;14672;50.250;8.312;2022-10-28T05:04:23;99298.94;;;19.77;67.79
27144;BME280;14672;50.250;8.312;2022-10-28T05:06:49;99286.25;;;19.63;68.24
27144;BME280;14672;50.250;8.312;2022-10-28T05:09:15;99294.41;;;19.65;67.74
27144;BME280;14672;50.250;8.312;2022-10-28T05:11:40;99296.72;;;19.61;67.91
27144;BME280;14672;50.250;8.312;2022-10-28T05:14:06;99288.94;;;19.73;67.19
27144;BME280;14672;50.250;8.312;2022-10-28T05:16:32;99276.91;;;19.74;67.22
27144;BME280;14672;50.250;8.312;2022-10-28T05:18:58;99270.84;;;19.72;67.38
27144;BME280;14672;50.250;8.312;2022-10-28T05:21:24;99273.00;;;19.77;67.01
27144;BME280;14672;50.250;8.312;2022-10-28T05:23:50;99276.19;;;19.85;66.48
27144;BME280;14672;50.250;8.312;2022-10-28T05:26:16;99274.84;;;19.80;66.63
27144;BME280;14672;50.250;8.312;2022-10-28T05:28:42;99274.84;;;19.80;66.59
27144;BME280;14672;50.250;8.312;2022-10-28T05:31:09;99271.72;;;19.78;66.61
27144;BME280;14672;50.250;8.312;2022-10-28T05:33:34;99260.94;;;19.79;66.39
27144;BME280;14672;50.250;8.312;2022-10-28T05:36:01;99276.16;;;19.79;66.30
27144;BME280;14672;50.250;8.312;2022-10-28T05:38:27;99279.47;;;19.66;66.47
27144;BME280;14672;50.250;8.312;2022-10-28T05:40:53;99282.13;;;19.70;66.66
27144;BME280;14672;50.250;8.312;2022-10-28T05:43:18;99278.44;;;19.69;66.55
27144;BME280;14672;50.250;8.312;2022-10-28T05:45:54;99278.72;;;19.72;66.34
27144;BME280;14672;50.250;8.312;2022-10-28T05:48:20;99282.38;;;19.66;66.61
27144;BME280;14672;50.250;8.312;2022-10-28T05:50:46;99275.00;;;19.65;66.73
27144;BME280;14672;50.250;8.312;2022-10-28T05:53:12;99282.13;;;19.70;66.41
27144;BME280;14672;50.250;8.312;2022-10-28T05:55:37;99272.94;;;19.72;66.53
27144;BME280;14672;50.250;8.312;2022-10-28T05:58:03;99275.28;;;19.67;66.39
27144;BME280;14672;50.250;8.312;2022-10-28T06:00:29;99273.09;;;19.57;66.94
27144;BME280;14672;50.250;8.312;2022-10-28T06:03:04;99277.03;;;19.59;67.09
27144;BME280;14672;50.250;8.312;2022-10-28T06:05:38;99277.09;;;19.65;66.43
27144;BME280;14672;50.250;8.312;2022-10-28T06:08:05;99281.81;;;19.62;66.86
27144;BME280;14672;50.250;8.312;2022-10-28T06:10:32;99287.56;;;19.62;66.87
27144;BME280;14672;50.250;8.312;2022-10-28T06:12:58;99281.25;;;19.58;66.90
27144;BME280;14672;50.250;8.312;2022-10-28T06:15:24;99284.13;;;19.58;67.12
27144;BME280;14672;50.250;8.312;2022-10-28T06:17:50;99291.84;;;19.47;67.47
27144;BME280;14672;50.250;8.312;2022-10-28T06:20:17;99280.88;;;19.51;67.24
27144;BME280;14672;50.250;8.312;2022-10-28T06:22:52;99282.72;;;19.48;67.43
27144;BME280;14672;50.250;8.312;2022-10-28T06:25:20;99274.63;;;19.52;67.33
27144;BME280;14672;50.250;8.312;2022-10-28T06:28:00;99276.72;;;19.52;67.42
27144;BME280;14672;50.250;8.312;2022-10-28T06:30:29;99282.22;;;19.50;67.45
27144;BME280;14672;50.250;8.312;2022-10-28T06:32:58;99283.16;;;19.41;67.61
27144;BME280;14672;50.250;8.312;2022-10-28T06:35:24;99285.72;;;19.39;67.97
27144;BME280;14672;50.250;8.312;2022-10-28T06:37:55;99289.75;;;19.47;67.79
27144;BME280;14672;50.250;8.312;2022-10-28T06:40:21;99291.09;;;19.46;67.60
27144;BME280;14672;50.250;8.312;2022-10-28T06:42:47;99286.66;;;19.51;67.30
27144;BME280;14672;50.250;8.312;2022-10-28T06:45:13;99286.88;;;19.47;67.70
27144;BME280;14672;50.250;8.312;2022-10-28T06:47:39;99285.31;;;19.46;67.79
27144;BME280;14672;50.250;8.312;2022-10-28T06:50:05;99292.41;;;19.51;67.34
27144;BME280;14672;50.250;8.312;2022-10-28T06:52:31;99304.75;;;19.51;67.29
27144;BME280;14672;50.250;8.312;2022-10-28T06:54:58;99318.88;;;19.49;67.42
27144;BME280;14672;50.250;8.312;2022-10-28T06:57:23;99307.59;;;19.46;67.62
27144;BME280;14672;50.250;8.312;2022-10-28T06:59:49;99326.00;;;19.54;67.40
27144;BME280;14672;50.250;8.312;2022-10-28T07:02:15;99325.22;;;19.53;67.25
27144;BME280;14672;50.250;8.312;2022-10-28T07:04:41;99327.41;;;19.64;66.97
27144;BME280;14672;50.250;8.312;2022-10-28T07:07:07;99324.75;;;19.60;67.14
27144;BME280;14672;50.250;8.312;2022-10-28T07:09:33;99327.41;;;19.64;67.18
27144;BME280;14672;50.250;8.312;2022-10-28T07:12:00;99332.91;;;19.62;67.44
27144;BME280;14672;50.250;8.312;2022-10-28T07:14:26;99328.09;;;19.53;67.16
27144;BME280;14672;50.250;8.312;2022-10-28T07:16:52;99333.13;;;19.58;67.37
27144;BME280;14672;50.250;8.312;2022-10-28T07:19:18;99346.53;;;19.67;66.99
27144;BME280;14672;50.250;8.312;2022-10-28T07:21:46;99344.44;;;19.62;67.20
27144;BME280;14672;50.250;8.312;2022-10-28T07:24:12;99340.75;;;19.61;67.31
27144;BME280;14672;50.250;8.312;2022-10-28T07:26:37;99336.34;;;19.66;67.06
27144;BME280;14672;50.250;8.312;2022-10-28T07:29:03;99329.25;;;19.67;67.00
27144;BME280;14672;50.250;8.312;2022-10-28T07:31:29;99332.44;;;19.69;67.04
27144;BME280;14672;50.250;8.312;2022-10-28T07:33:56;99339.00;;;19.69;66.71
27144;BME280;14672;50.250;8.312;2022-10-28T07:36:22;99338.22;;;19.75;66.17
27144;BME280;14672;50.250;8.312;2022-10-28T07:38:51;99324.59;;;19.75;66.44
27144;BME280;14672;50.250;8.312;2022-10-28T07:41:19;99333.50;;;19.72;66.73
27144;BME280;14672;50.250;8.312;2022-10-28T07:43:45;99323.03;;;19.74;66.36
27144;BME280;14672;50.250;8.312;2022-10-28T07:46:12;99331.41;;;19.72;66.46
27144;BME280;14672;50.250;8.312;2022-10-28T07:48:38;99324.28;;;19.67;66.62
27144;BME280;14672;50.250;8.312;2022-10-28T07:51:06;99334.81;;;19.71;66.19
27144;BME280;14672;50.250;8.312;2022-10-28T07:53:33;99333.78;;;19.74;66.25
27144;BME280;14672;50.250;8.312;2022-10-28T07:56:03;99336.44;;;19.77;66.25
27144;BME280;14672;50.250;8.312;2022-10-28T07:58:30;99334.91;;;19.82;66.08
27144;BME280;14672;50.250;8.312;2022-10-28T08:01:06;99333.09;;;19.84;66.18
27144;BME280;14672;50.250;8.312;2022-10-28T08:03:33;99326.53;;;19.84;66.28
27144;BME280;14672;50.250;8.312;2022-10-28T08:06:15;99338.84;;;19.84;65.88
27144;BME280;14672;50.250;8.312;2022-10-28T08:08:44;99339.34;;;19.83;65.60
27144;BME280;14672;50.250;8.312;2022-10-28T08:11:12;99331.81;;;19.91;65.59
27144;BME280;14672;50.250;8.312;2022-10-28T08:13:38;99336.81;;;19.90;65.88
27144;BME280;14672;50.250;8.312;2022-10-28T08:16:04;99337.13;;;19.98;65.35
27144;BME280;14672;50.250;8.312;2022-10-28T08:18:31;99337.13;;;19.98;65.76
27144;BME280;14672;50.250;8.312;2022-10-28T08:21:01;99333.47;;;19.97;65.39
27144;BME280;14672;50.250;8.312;2022-10-28T08:23:28;99337.94;;;19.98;64.96
27144;BME280;14672;50.250;8.312;2022-10-28T08:25:55;99334.53;;;20.00;64.91
27144;BME280;14672;50.250;8.312;2022-10-28T08:28:21;99346.06;;;20.00;64.67
27144;BME280;14672;50.250;8.312;2022-10-28T08:30:47;99349.22;;;20.02;64.82
27144;BME280;14672;50.250;8.312;2022-10-28T08:33:13;99350.03;;;20.02;64.73
27144;BME280;14672;50.250;8.312;2022-10-28T08:35:39;99356.13;;;20.10;63.85
27144;BME280;14672;50.250;8.312;2022-10-28T08:38:05;99351.34;;;20.07;64.17
27144;BME280;14672;50.250;8.312;2022-10-28T08:40:41;99356.28;;;20.01;64.27
27144;BME280;14672;50.250;8.312;2022-10-28T08:49:20;99361.66;;;20.13;64.13
27144;BME280;14672;50.250;8.312;2022-10-28T08:54:51;99341.94;;;20.12;63.88
27144;BME280;14672;50.250;8.312;2022-10-28T08:57:51;99342.50;;;20.16;64.02
27144;BME280;14672;50.250;8.312;2022-10-28T09:00:27;99333.06;;;20.15;63.38
27144;BME280;14672;50.250;8.312;2022-10-28T09:05:40;99340.72;;;20.24;63.33
27144;BME280;14672;50.250;8.312;2022-10-28T09:08:22;99345.78;;;20.29;63.08
27144;BME280;14672;50.250;8.312;2022-10-28T09:16:48;99342.22;;;20.45;62.67
27144;BME280;14672;50.250;8.312;2022-10-28T09:19:44;99344.13;;;20.54;62.00
27144;BME280;14672;50.250;8.312;2022-10-28T09:22:26;99345.16;;;20.56;61.92
27144;BME280;14672;50.250;8.312;2022-10-28T09:25:09;99331.84;;;20.65;61.99
27144;BME280;14672;50.250;8.312;2022-10-28T09:27:51;99325.78;;;20.62;61.69
27144;BME280;14672;50.250;8.312;2022-10-28T09:30:52;99338.91;;;20.63;61.37
27144;BME280;14672;50.250;8.312;2022-10-28T09:36:57;99333.41;;;20.66;61.90
27144;BME280;14672;50.250;8.312;2022-10-28T09:39:28;99333.13;;;20.58;61.73
27144;BME280;14672;50.250;8.312;2022-10-28T09:41:59;99336.88;;;20.75;61.41
27144;BME280;14672;50.250;8.312;2022-10-28T09:44:39;99328.25;;;20.81;61.48
27144;BME280;14672;50.250;8.312;2022-10-28T09:47:22;99311.44;;;20.85;61.53
27144;BME280;14672;50.250;8.312;2022-10-28T09:49:55;99312.53;;;20.93;61.41
27144;BME280;14672;50.250;8.312;2022-10-28T09:52:31;99318.03;;;20.91;61.46
27144;BME280;14672;50.250;8.312;2022-10-28T09:55:07;99321.16;;;20.87;61.65
27144;BME280;14672;50.250;8.312;2022-10-28T09:57:40;99321.16;;;20.87;61.57
27144;BME280;14672;50.250;8.312;2022-10-28T10:00:13;99335.13;;;21.00;61.61
27144;BME280;14672;50.250;8.312;2022-10-28T10:02:39;99329.91;;;21.04;61.10
27144;BME280;14672;50.250;8.312;2022-10-28T10:05:15;99331.34;;;21.42;61.04
27144;BME280;14672;50.250;8.312;2022-10-28T10:10:27;99334.84;;;22.07;58.83
27144;BME280;14672;50.250;8.312;2022-10-28T10:12:59;99332.75;;;22.24;58.40
27144;BME280;14672;50.250;8.312;2022-10-28T10:16:03;99333.72;;;22.55;57.60
27144;BME280;14672;50.250;8.312;2022-10-28T10:18:31;99334.28;;;22.47;57.01
27144;BME280;14672;50.250;8.312;2022-10-28T10:20:58;99334.72;;;22.85;56.41
27144;BME280;14672;50.250;8.312;2022-10-28T10:23:28;99319.50;;;23.25;55.60
27144;BME280;14672;50.250;8.312;2022-10-28T10:26:04;99326.75;;;23.54;54.55
27144;BME280;14672;50.250;8.312;2022-10-28T10:28:32;99318.00;;;23.60;53.55
27144;BME280;14672;50.250;8.312;2022-10-28T10:31:06;99316.56;;;24.07;53.20
27144;BME280;14672;50.250;8.312;2022-10-28T10:33:38;99317.59;;;24.15;52.96
27144;BME280;14672;50.250;8.312;2022-10-28T10:36:15;99307.88;;;24.61;52.10
27144;BME280;14672;50.250;8.312;2022-10-28T10:38:52;99303.09;;;24.88;50.72
27144;BME280;14672;50.250;8.312;2022-10-28T10:41:40;99306.28;;;25.28;50.59
27144;BME280;14672;50.250;8.312;2022-10-28T10:49:34;99313.69;;;25.98;48.13
27144;BME280;14672;50.250;8.312;2022-10-28T10:52:20;99306.19;;;26.02;48.37
27144;BME280;14672;50.250;8.312;2022-10-28T10:55:04;99313.75;;;25.92;48.24
27144;BME280;14672;50.250;8.312;2022-10-28T10:57:32;99296.53;;;26.26;47.43
27144;BME280;14672;50.250;8.312;2022-10-28T10:59:58;99293.50;;;26.32;47.09
27144;BME280;14672;50.250;8.312;2022-10-28T11:02:34;99304.28;;;26.76;47.18
27144;BME280;14672;50.250;8.312;2022-10-28T11:05:06;99298.50;;;27.02;46.36
27144;BME280;14672;50.250;8.312;2022-10-28T11:07:37;99299.78;;;27.28;45.30
27144;BME280;14672;50.250;8.312;2022-10-28T11:10:06;99297.06;;;27.43;44.78
27144;BME280;14672;50.250;8.312;2022-10-28T11:13:00;99285.53;;;27.71;44.52
27144;BME280;14672;50.250;8.312;2022-10-28T11:15:29;99290.81;;;27.73;44.05
27144;BME280;14672;50.250;8.312;2022-10-28T11:18:20;99289.72;;;27.83;43.77
27144;BME280;14672;50.250;8.312;2022-10-28T11:20:53;99282.06;;;27.93;43.75
27144;BME280;14672;50.250;8.312;2022-10-28T11:25:58;99281.78;;;28.05;43.29
27144;BME280;14672;50.250;8.312;2022-10-28T11:29:04;99274.50;;;28.19;43.23
27144;BME280;14672;50.250;8.312;2022-10-28T11:43:27;99258.19;;;28.23;43.00
27144;BME280;14672;50.250;8.312;2022-10-28T11:54:42;99245.09;;;28.17;43.67
27144;BME280;14672;50.250;8.312;2022-10-28T11:57:21;99253.00;;;28.29;42.93
27144;BME280;14672;50.250;8.312;2022-10-28T12:20:21;99233.41;;;29.09;43.02
27144;BME280;14672;50.250;8.312;2022-10-28T12:22:53;99218.69;;;29.30;42.52
27144;BME280;14672;50.250;8.312;2022-10-28T12:25:32;99223.44;;;29.63;42.67
27144;BME280;14672;50.250;8.312;2022-10-28T12:28:22;99224.63;;;29.75;42.57
27144;BME280;14672;50.250;8.312;2022-10-28T12:30:51;99221.31;;;29.71;41.97
27144;BME280;14672;50.250;8.312;2022-10-28T12:33:38;99217.19;;;29.74;41.80
27144;BME280;14672;50.250;8.312;2022-10-28T12:38:46;99192.25;;;29.89;41.29
27144;BME280;14672;50.250;8.312;2022-10-28T12:44:14;99195.19;;;30.04;40.82
27144;BME280;14672;50.250;8.312;2022-10-28T12:47:13;99196.75;;;29.90;40.95
27144;BME280;14672;50.250;8.312;2022-10-28T12:50:04;99198.47;;;29.85;40.92
27144;BME280;14672;50.250;8.312;2022-10-28T12:55:57;99200.84;;;29.87;41.14
27144;BME280;14672;50.250;8.312;2022-10-28T13:01:37;99205.44;;;29.44;42.03
27144;BME280;14672;50.250;8.312;2022-10-28T13:04:04;99208.81;;;29.05;42.56
27144;BME280;14672;50.250;8.312;2022-10-28T13:15:48;99201.03;;;28.43;44.17
27144;BME280;14672;50.250;8.312;2022-10-28T13:26:54;99211.41;;;27.74;45.56
27144;BME280;14672;50.250;8.312;2022-10-28T13:29:27;99208.75;;;27.63;45.84
27144;BME280;14672;50.250;8.312;2022-10-28T13:31:54;99211.13;;;27.85;45.41
27144;BME280;14672;50.250;8.312;2022-10-28T13:34:31;99209.53;;;27.64;46.24
27144;BME280;14672;50.250;8.312;2022-10-28T13:37:01;99210.81;;;27.55;46.32
27144;BME280;14672;50.250;8.312;2022-10-28T13:47:36;99194.44;;;27.52;46.42
27144;BME280;14672;50.250;8.312;2022-10-28T13:52:38;99189.28;;;27.45;46.88
27144;BME280;14672;50.250;8.312;2022-10-28T13:55:26;99180.78;;;27.13;47.31
27144;BME280;14672;50.250;8.312;2022-10-28T13:58:21;99197.78;;;26.88;47.60
27144;BME280;14672;50.250;8.312;2022-10-28T14:00:48;99197.56;;;26.73;47.43
27144;BME280;14672;50.250;8.312;2022-10-28T14:03:23;99201.16;;;26.79;48.14
27144;BME280;14672;50.250;8.312;2022-10-28T14:05:57;99203.19;;;26.84;47.75
27144;BME280;14672;50.250;8.312;2022-10-28T14:08:40;99203.06;;;26.90;46.92
27144;BME280;14672;50.250;8.312;2022-10-28T14:11:12;99200.13;;;27.03;47.23
27144;BME280;14672;50.250;8.312;2022-10-28T14:16:37;99200.44;;;26.99;46.68
27144;BME280;14672;50.250;8.312;2022-10-28T14:22:04;99209.66;;;26.77;46.84
27144;BME280;14672;50.250;8.312;2022-10-28T14:24:41;99213.97;;;26.63;47.70
27144;BME280;14672;50.250;8.312;2022-10-28T14:32:56;99205.00;;;26.35;48.43
27144;BME280;14672;50.250;8.312;2022-10-28T14:35:30;99198.72;;;26.31;48.63
27144;BME280;14672;50.250;8.312;2022-10-28T14:41:02;99220.53;;;26.11;49.03
27144;BME280;14672;50.250;8.312;2022-10-28T14:49:31;99221.00;;;25.70;50.35
27144;BME280;14672;50.250;8.312;2022-10-28T14:52:12;99238.78;;;25.66;49.98
27144;BME280;14672;50.250;8.312;2022-10-28T14:55:23;99229.66;;;25.57;50.35
27144;BME280;14672;50.250;8.312;2022-10-28T14:57:50;99229.47;;;25.55;50.73
27144;BME280;14672;50.250;8.312;2022-10-28T15:00:20;99219.31;;;25.43;51.68
27144;BME280;14672;50.250;8.312;2022-10-28T15:02:47;99228.44;;;25.34;51.73
27144;BME280;14672;50.250;8.312;2022-10-28T15:05:21;99226.38;;;25.29;51.81
27144;BME280;14672;50.250;8.312;2022-10-28T15:07:49;99230.66;;;25.28;51.89
27144;BME280;14672;50.250;8.312;2022-10-28T15:10:25;99231.28;;;25.20;51.82
27144;BME280;14672;50.250;8.312;2022-10-28T15:12:54;99248.19;;;25.03;52.06
27144;BME280;14672;50.250;8.312;2022-10-28T15:15:26;99244.97;;;25.07;52.68
27144;BME280;14672;50.250;8.312;2022-10-28T15:17:53;99249.13;;;24.93;53.00
27144;BME280;14672;50.250;8.312;2022-10-28T15:20:34;99254.22;;;24.87;53.06
27144;BME280;14672;50.250;8.312;2022-10-28T15:23:23;99256.69;;;24.77;53.51
27144;BME280;14672;50.250;8.312;2022-10-28T15:28:32;99259.88;;;24.55;54.47
27144;BME280;14672;50.250;8.312;2022-10-28T15:30:58;99260.25;;;24.46;54.67
27144;BME280;14672;50.250;8.312;2022-10-28T15:33:35;99259.44;;;24.45;55.03
27144;BME280;14672;50.250;8.312;2022-10-28T15:36:18;99252.16;;;24.39;54.92
27144;BME280;14672;50.250;8.312;2022-10-28T15:39:13;99245.09;;;24.28;55.48
27144;BME280;14672;50.250;8.312;2022-10-28T15:41:45;99261.09;;;24.16;55.75
27144;BME280;14672;50.250;8.312;2022-10-28T15:44:36;99256.72;;;24.04;56.38
27144;BME280;14672;50.250;8.312;2022-10-28T15:47:31;99253.31;;;24.00;56.13
27144;BME280;14672;50.250;8.312;2022-10-28T15:52:49;99244.81;;;23.78;56.10
27144;BME280;14672;50.250;8.312;2022-10-28T15:58:30;99244.56;;;23.76;56.16
27144;BME280;14672;50.250;8.312;2022-10-28T16:00:57;99249.97;;;23.61;56.72
27144;BME280;14672;50.250;8.312;2022-10-28T16:06:35;99258.25;;;23.46;57.28
27144;BME280;14672;50.250;8.312;2022-10-28T16:11:44;99259.41;;;23.26;57.69
27144;BME280;14672;50.250;8.312;2022-10-28T16:14:38;99270.06;;;23.12;58.16
27144;BME280;14672;50.250;8.312;2022-10-28T16:17:21;99266.66;;;23.08;58.12
27144;BME280;14672;50.250;8.312;2022-10-28T16:22:24;99273.00;;;23.01;58.56
27144;BME280;14672;50.250;8.312;2022-10-28T16:24:52;99266.94;;;23.05;58.34
27144;BME280;14672;50.250;8.312;2022-10-28T16:27:23;99259.34;;;22.96;58.88
27144;BME280;14672;50.250;8.312;2022-10-28T16:29:50;99261.19;;;22.93;58.59